createdAt,value
2023-05-10T00:02:09.560Z,10.32
2023-05-10T00:04:36.377Z,17.08
2023-05-10T00:07:03.267Z,30.60
2023-05-10T00:09:29.968Z,34.22
2023-05-10T00:11:59.350Z,45.88
2023-05-10T00:14:26.130Z,29.25
2023-05-10T00:16:53.130Z,63.55
2023-05-10T00:19:19.878Z,21.85
2023-05-10T00:21:46.634Z,69.38
2023-05-10T00:24:13.819Z,111.63
2023-05-10T00:26:40.556Z,57.78
2023-05-10T00:29:07.620Z,40.75
2023-05-10T00:31:34.520Z,49.38
2023-05-10T00:34:01.261Z,67.57
2023-05-10T00:36:28.708Z,46.20
2023-05-10T00:38:55.491Z,51.50
2023-05-10T00:41:22.864Z,42.00
2023-05-10T00:43:50.094Z,52.40
2023-05-10T00:46:17.207Z,105.03
2023-05-10T00:48:44.694Z,58.70
2023-05-10T00:51:11.699Z,45.28
2023-05-10T00:53:39.012Z,74.15
2023-05-10T00:56:06.573Z,34.50
2023-05-10T00:58:34.516Z,40.75
2023-05-10T01:01:02.556Z,58.63
2023-05-10T01:03:30.218Z,65.50
2023-05-10T01:05:57.000Z,42.85
2023-05-10T01:08:25.455Z,110.68
2023-05-10T01:10:53.553Z,41.88
2023-05-10T01:13:28.046Z,45.33
2023-05-10T01:15:55.631Z,50.85
2023-05-10T01:18:23.048Z,60.45
2023-05-10T01:21:03.920Z,34.47
2023-05-10T01:23:58.751Z,14.05
2023-05-10T01:26:31.652Z,24.38
2023-05-10T01:29:22.884Z,29.08
2023-05-10T01:31:58.574Z,42.95
2023-05-10T01:34:31.820Z,24.38
2023-05-10T01:37:06.174Z,45.33
2023-05-10T01:39:45.562Z,78.07
2023-05-10T01:42:18.008Z,60.08
2023-05-10T01:44:54.459Z,43.55
2023-05-10T01:47:43.201Z,31.30
2023-05-10T01:50:16.864Z,56.22
2023-05-10T01:52:47.569Z,20.02
2023-05-10T01:55:19.303Z,30.50
2023-05-10T01:57:49.035Z,42.83
2023-05-10T02:00:17.484Z,19.02
2023-05-10T02:02:51.588Z,23.70
2023-05-10T02:05:21.540Z,27.13
2023-05-10T02:07:48.909Z,24.15
2023-05-10T02:10:17.029Z,23.63
2023-05-10T02:12:47.058Z,5.22
2023-05-10T02:15:18.383Z,22.65
2023-05-10T02:17:47.688Z,10.55
2023-05-10T02:20:16.884Z,12.13
2023-05-10T02:22:45.907Z,21.05
2023-05-10T02:25:15.416Z,18.70
2023-05-10T02:27:44.318Z,17.23
2023-05-10T02:30:12.007Z,37.20
2023-05-10T02:32:43.364Z,36.22
2023-05-10T02:35:11.359Z,30.88
2023-05-10T02:37:39.586Z,31.63
2023-05-10T02:40:08.194Z,48.58
2023-05-10T02:42:38.023Z,32.45
2023-05-10T02:45:14.213Z,54.55
2023-05-10T02:47:43.240Z,175.50
2023-05-10T02:50:10.670Z,22.02
2023-05-10T02:52:47.293Z,33.50
2023-05-10T02:55:16.972Z,68.90
2023-05-10T02:57:52.017Z,42.47
2023-05-10T03:00:19.289Z,83.90
2023-05-10T03:02:45.966Z,73.53
2023-05-10T03:05:12.817Z,69.15
2023-05-10T03:07:39.673Z,50.55
2023-05-10T03:10:07.554Z,31.73
2023-05-10T03:13:01.989Z,29.80
2023-05-10T03:15:56.694Z,13.40
2023-05-10T03:18:27.559Z,32.97
2023-05-10T03:21:00.433Z,15.30
2023-05-10T03:23:33.261Z,12.77
2023-05-10T03:26:01.543Z,21.85
2023-05-10T03:28:28.831Z,22.88
2023-05-10T03:30:57.654Z,23.52
2023-05-10T03:33:24.739Z,18.75
2023-05-10T03:35:51.746Z,20.08
2023-05-10T03:38:18.537Z,32.38
2023-05-10T03:40:46.650Z,56.00
2023-05-10T03:43:14.004Z,7.55
2023-05-10T03:45:40.840Z,17.85
2023-05-10T03:48:07.733Z,7.82
2023-05-10T03:50:34.527Z,18.23
2023-05-10T03:53:03.213Z,18.10
2023-05-10T03:55:30.517Z,24.55
2023-05-10T03:57:58.801Z,31.10
2023-05-10T04:00:25.832Z,19.83
2023-05-10T04:02:55.175Z,47.60
2023-05-10T04:05:23.208Z,19.58
2023-05-10T04:07:52.177Z,12.05
2023-05-10T04:10:19.260Z,25.50
2023-05-10T04:12:46.432Z,8.32
2023-05-10T04:15:13.546Z,13.90
2023-05-10T04:17:40.757Z,10.05
2023-05-10T04:20:08.341Z,10.75
2023-05-10T04:22:35.242Z,11.25
2023-05-10T04:25:01.921Z,19.05
2023-05-10T04:27:28.975Z,16.98
2023-05-10T04:29:55.764Z,6.57
2023-05-10T04:32:23.872Z,22.55
2023-05-10T04:34:52.239Z,9.00
2023-05-10T04:37:19.125Z,12.98
2023-05-10T04:39:45.898Z,20.42
2023-05-10T04:42:12.853Z,13.57
2023-05-10T04:44:39.720Z,42.97
2023-05-10T04:47:06.398Z,18.98
2023-05-10T04:49:34.610Z,28.65
2023-05-10T04:52:01.244Z,16.30
2023-05-10T04:54:27.966Z,15.60
2023-05-10T04:56:54.616Z,52.38
2023-05-10T04:59:21.335Z,15.32
2023-05-10T05:01:48.095Z,16.70
2023-05-10T05:04:15.609Z,17.27
2023-05-10T05:06:42.323Z,23.48
2023-05-10T05:09:11.330Z,22.88
2023-05-10T05:11:38.099Z,45.30
2023-05-10T05:14:04.815Z,14.32
2023-05-10T05:16:33.039Z,14.38
2023-05-10T05:19:00.882Z,19.85
2023-05-10T05:21:28.127Z,32.35
2023-05-10T05:23:54.903Z,16.40
2023-05-10T05:26:22.279Z,49.60
2023-05-10T05:28:49.821Z,20.40
2023-05-10T05:31:16.537Z,24.33
2023-05-10T05:33:43.260Z,24.27
2023-05-10T05:36:10.333Z,16.15
2023-05-10T05:38:37.096Z,24.40
2023-05-10T05:41:04.074Z,20.95
2023-05-10T05:43:30.889Z,19.75
2023-05-10T05:45:59.159Z,24.13
2023-05-10T05:48:26.272Z,22.85
2023-05-10T05:50:57.558Z,18.80
2023-05-10T05:53:24.718Z,29.52
2023-05-10T05:55:59.358Z,25.05
2023-05-10T05:58:26.945Z,37.20
2023-05-10T06:00:54.805Z,37.95
2023-05-10T06:03:21.840Z,75.63
2023-05-10T06:05:48.834Z,18.73
2023-05-10T06:08:15.631Z,42.88
2023-05-10T06:10:42.604Z,38.90
2023-05-10T06:13:09.981Z,53.97
2023-05-10T06:15:37.472Z,55.15
2023-05-10T06:18:06.695Z,23.70
2023-05-10T06:20:33.574Z,96.45
2023-05-10T06:23:00.548Z,32.42
2023-05-10T06:25:27.510Z,35.90
2023-05-10T06:27:58.942Z,63.80
2023-05-10T06:30:30.086Z,80.70
2023-05-10T06:32:58.182Z,34.25
2023-05-10T06:35:25.253Z,47.97
2023-05-10T06:37:52.470Z,153.65
2023-05-10T06:40:20.699Z,23.38
2023-05-10T06:42:48.803Z,54.40
2023-05-10T06:45:16.680Z,20.35
2023-05-10T06:47:44.518Z,38.63
2023-05-10T06:50:12.760Z,45.35
2023-05-10T06:52:40.268Z,73.47
2023-05-10T06:55:07.512Z,55.40
2023-05-10T06:57:34.206Z,77.53
2023-05-10T07:00:01.147Z,55.53
2023-05-10T07:02:28.149Z,56.53
2023-05-10T07:04:55.212Z,57.90
2023-05-10T07:07:22.162Z,17.23
2023-05-10T07:09:49.968Z,57.20
2023-05-10T07:12:16.822Z,30.40
2023-05-10T07:14:43.627Z,36.40
2023-05-10T07:17:11.111Z,45.35
2023-05-10T07:19:37.992Z,79.13
2023-05-10T07:22:04.845Z,65.28
2023-05-10T07:24:32.585Z,47.88
2023-05-10T07:26:59.343Z,56.03
2023-05-10T07:29:26.389Z,66.90
2023-05-10T07:31:53.257Z,27.30
2023-05-10T07:34:19.982Z,50.80
2023-05-10T07:36:46.976Z,110.50
2023-05-10T07:39:18.693Z,47.67
2023-05-10T07:41:51.490Z,77.65
2023-05-10T07:44:20.213Z,43.00
2023-05-10T07:46:47.696Z,83.28
2023-05-10T07:49:14.564Z,31.20
2023-05-10T07:51:41.429Z,86.78
2023-05-10T07:54:09.270Z,78.05
2023-05-10T07:56:36.120Z,47.63
2023-05-10T07:59:05.033Z,51.22
2023-05-10T08:01:33.516Z,83.40
2023-05-10T08:04:02.956Z,58.38
2023-05-10T08:06:31.061Z,56.22
2023-05-10T08:08:58.154Z,64.72
2023-05-10T08:11:24.953Z,37.28
2023-05-10T08:13:52.326Z,27.45
2023-05-10T08:16:19.946Z,31.67
2023-05-10T08:18:48.118Z,70.60
2023-05-10T08:21:16.643Z,70.55
2023-05-10T08:23:45.088Z,55.88
2023-05-10T08:26:12.694Z,20.33
2023-05-10T08:28:39.668Z,74.38
2023-05-10T08:31:06.817Z,56.40
2023-05-10T08:33:34.125Z,85.50
2023-05-10T08:36:01.058Z,65.00
2023-05-10T08:38:28.163Z,70.05
2023-05-10T08:40:59.727Z,78.80
2023-05-10T08:43:31.278Z,23.77
2023-05-10T08:46:01.649Z,19.40
2023-05-10T08:48:31.866Z,27.98
2023-05-10T08:53:33.488Z,67.82
2023-05-10T08:56:00.630Z,21.90
2023-05-10T08:58:27.548Z,47.55
2023-05-10T09:00:54.563Z,12.55
2023-05-10T09:03:21.323Z,36.15
2023-05-10T09:05:49.866Z,21.58
2023-05-10T09:08:17.533Z,49.75
2023-05-10T09:10:48.139Z,17.10
2023-05-10T09:13:20.037Z,75.60
2023-05-10T09:15:47.303Z,60.08
2023-05-10T09:18:14.588Z,27.17
2023-05-10T09:20:42.137Z,52.78
2023-05-10T09:23:08.989Z,20.77
2023-05-10T09:25:36.063Z,19.65
2023-05-10T09:28:03.165Z,9.45
2023-05-10T09:30:31.655Z,25.70
2023-05-10T09:33:00.356Z,23.33
2023-05-10T09:35:29.946Z,22.80
2023-05-10T09:38:04.893Z,18.05
2023-05-10T09:40:32.412Z,19.98
2023-05-10T09:43:03.060Z,36.50
2023-05-10T09:45:31.979Z,15.60
2023-05-10T09:48:00.169Z,9.30
2023-05-10T09:50:27.650Z,14.48
2023-05-10T09:53:02.323Z,12.23
2023-05-10T09:55:47.106Z,7.47
2023-05-10T09:58:15.632Z,4.50
2023-05-10T10:00:48.877Z,21.58
2023-05-10T10:03:18.133Z,19.90
2023-05-10T10:05:46.288Z,14.07
2023-05-10T10:08:13.995Z,6.80
2023-05-10T10:10:41.618Z,4.72
2023-05-10T10:13:08.948Z,7.35
2023-05-10T10:15:36.522Z,4.88
2023-05-10T10:18:05.202Z,8.20
2023-05-10T10:20:32.545Z,8.68
2023-05-10T10:22:59.310Z,14.05
2023-05-10T10:25:26.857Z,12.90
2023-05-10T10:27:54.060Z,18.02
2023-05-10T10:30:30.200Z,10.15
2023-05-10T10:35:54.889Z,10.10
2023-05-10T10:38:21.712Z,5.70
2023-05-10T10:40:48.986Z,5.63
2023-05-10T10:43:29.268Z,3.70
2023-05-10T10:46:18.569Z,6.20
2023-05-10T10:48:52.407Z,3.97
2023-05-10T10:51:19.486Z,5.00
2023-05-10T10:53:49.294Z,4.70
2023-05-10T10:56:16.781Z,5.15
2023-05-10T10:58:52.351Z,2.88
2023-05-10T11:01:20.281Z,2.92
2023-05-10T11:04:02.069Z,6.22
2023-05-10T11:06:33.495Z,12.75
2023-05-10T11:11:27.296Z,5.78
2023-05-10T11:13:54.093Z,3.10
2023-05-10T11:16:25.922Z,12.15
2023-05-10T11:19:17.279Z,8.40
2023-05-10T11:21:49.373Z,5.88
2023-05-10T11:24:19.083Z,6.40
2023-05-10T11:26:45.885Z,6.72
2023-05-10T11:29:14.659Z,12.18
2023-05-10T11:31:49.386Z,5.55
2023-05-10T11:34:36.433Z,8.93
2023-05-10T11:37:03.388Z,6.95
2023-05-10T11:39:32.066Z,7.80
2023-05-10T11:41:59.702Z,10.05
2023-05-10T11:44:31.559Z,19.35
2023-05-10T11:47:04.524Z,11.80
2023-05-10T11:49:31.345Z,10.70
2023-05-10T11:52:12.094Z,11.73
2023-05-10T11:54:38.870Z,7.85
2023-05-10T11:57:05.863Z,11.13
2023-05-10T11:59:32.865Z,7.90
2023-05-10T12:01:59.834Z,7.25
2023-05-10T12:04:27.684Z,15.52
2023-05-10T12:06:56.572Z,7.18
2023-05-10T12:09:39.434Z,13.35
2023-05-10T12:12:09.676Z,7.63
2023-05-10T12:14:36.823Z,9.02
2023-05-10T12:17:03.573Z,24.70
2023-05-10T12:19:38.509Z,6.78
2023-05-10T12:22:08.047Z,10.18
2023-05-10T12:24:41.704Z,14.30
2023-05-10T12:27:13.365Z,18.98
2023-05-10T12:29:45.514Z,12.13
2023-05-10T12:32:12.500Z,13.85
2023-05-10T12:34:39.595Z,6.85
2023-05-10T12:37:06.405Z,16.45
2023-05-10T12:39:44.696Z,15.20
2023-05-10T12:42:12.158Z,9.15
2023-05-10T12:44:39.823Z,21.65
2023-05-10T12:47:07.973Z,11.35
2023-05-10T12:49:35.077Z,9.13
2023-05-10T12:52:02.102Z,6.25
2023-05-10T12:54:29.038Z,9.48
2023-05-10T12:56:55.986Z,7.80
2023-05-10T12:59:24.016Z,9.40
2023-05-10T13:01:51.335Z,7.57
2023-05-10T13:04:19.484Z,18.58
2023-05-10T13:06:46.303Z,7.65
2023-05-10T13:09:13.958Z,15.23
2023-05-10T13:11:40.924Z,14.93
2023-05-10T13:14:07.993Z,11.93
2023-05-10T13:16:34.811Z,7.85
2023-05-10T13:19:01.579Z,11.80
2023-05-10T13:21:28.950Z,9.00
2023-05-10T13:23:56.352Z,7.10
2023-05-10T13:26:23.042Z,9.38
2023-05-10T13:28:50.851Z,8.85
2023-05-10T13:31:17.651Z,7.47
2023-05-10T13:33:44.450Z,9.35
2023-05-10T13:36:11.200Z,11.15
2023-05-10T13:38:38.455Z,7.90
2023-05-10T13:41:05.630Z,11.38
2023-05-10T13:43:32.383Z,9.63
2023-05-10T13:45:59.363Z,10.48
2023-05-10T13:48:26.224Z,11.73
2023-05-10T13:50:52.947Z,16.75
2023-05-10T13:53:19.595Z,11.13
2023-05-10T13:55:46.377Z,11.25
2023-05-10T13:58:13.082Z,12.10
2023-05-10T14:00:40.104Z,16.67
2023-05-10T14:03:07.919Z,10.20
2023-05-10T14:05:34.828Z,11.38
2023-05-10T14:08:01.488Z,8.57
2023-05-10T14:10:28.244Z,4.97
2023-05-10T14:12:54.938Z,5.97
2023-05-10T14:15:22.120Z,11.32
2023-05-10T14:17:49.040Z,7.53
2023-05-10T14:20:16.088Z,5.63
2023-05-10T14:22:42.737Z,6.75
2023-05-10T14:25:09.870Z,6.55
2023-05-10T14:27:36.510Z,6.75
2023-05-10T14:30:03.575Z,10.93
2023-05-10T14:32:30.323Z,4.40
2023-05-10T14:34:57.078Z,4.43
2023-05-10T14:37:23.816Z,5.85
2023-05-10T14:39:50.547Z,5.68
2023-05-10T14:42:17.216Z,3.80
2023-05-10T14:44:43.936Z,3.47
2023-05-10T14:47:12.071Z,6.53
2023-05-10T14:49:39.634Z,6.78
2023-05-10T14:52:06.377Z,15.55
2023-05-10T14:54:35.086Z,11.27
2023-05-10T14:57:01.777Z,6.30
2023-05-10T14:59:28.533Z,2.75
2023-05-10T15:01:55.802Z,4.45
2023-05-10T15:04:23.688Z,6.47
2023-05-10T15:06:51.575Z,4.70
2023-05-10T15:09:18.304Z,3.25
2023-05-10T15:11:45.513Z,4.65
2023-05-10T15:14:12.238Z,3.25
2023-05-10T15:16:39.221Z,16.88
2023-05-10T15:19:06.034Z,5.85
2023-05-10T15:21:38.622Z,13.07
2023-05-10T15:24:09.537Z,6.53
2023-05-10T15:26:36.258Z,5.60
2023-05-10T15:29:03.376Z,9.73
2023-05-10T15:31:30.233Z,4.32
2023-05-10T15:34:00.039Z,4.78
2023-05-10T15:36:26.868Z,5.25
2023-05-10T15:38:55.767Z,4.38
2023-05-10T15:41:22.493Z,3.70
2023-05-10T15:43:50.383Z,2.55
2023-05-10T15:46:17.133Z,8.45
2023-05-10T15:48:43.899Z,3.60
2023-05-10T15:51:10.623Z,3.40
2023-05-10T15:53:37.282Z,7.55
2023-05-10T15:56:04.247Z,5.53
2023-05-10T15:58:30.972Z,3.33
2023-05-10T16:00:57.939Z,3.63
2023-05-10T16:03:25.125Z,5.32
2023-05-10T16:05:52.014Z,6.47
2023-05-10T16:08:18.674Z,4.50
2023-05-10T16:10:45.450Z,14.10
2023-05-10T16:13:12.116Z,8.45
2023-05-10T16:15:38.820Z,10.88
2023-05-10T16:18:08.573Z,10.95
2023-05-10T16:20:35.803Z,6.43
2023-05-10T16:23:07.768Z,7.13
2023-05-10T16:25:34.803Z,6.63
2023-05-10T16:28:01.670Z,9.23
2023-05-10T16:30:30.374Z,10.45
2023-05-10T16:32:58.112Z,5.97
2023-05-10T16:35:24.931Z,10.23
2023-05-10T16:37:51.812Z,6.82
2023-05-10T16:40:19.462Z,8.30
2023-05-10T16:42:46.439Z,6.35
2023-05-10T16:45:13.302Z,9.35
2023-05-10T16:47:41.235Z,5.38
2023-05-10T16:50:08.502Z,5.88
2023-05-10T16:52:36.272Z,7.63
2023-05-10T16:55:04.805Z,11.10
2023-05-10T16:57:32.918Z,6.93
2023-05-10T16:59:59.863Z,9.52
2023-05-10T17:02:26.852Z,7.32
2023-05-10T17:04:56.296Z,6.40
2023-05-10T17:07:26.049Z,7.90
2023-05-10T17:09:53.170Z,7.18
2023-05-10T17:12:19.965Z,8.80
2023-05-10T17:14:47.174Z,10.05
2023-05-10T17:17:13.911Z,7.35
2023-05-10T17:19:40.595Z,9.98
2023-05-10T17:22:08.464Z,9.70
2023-05-10T17:24:35.161Z,7.63
2023-05-10T17:27:03.563Z,10.40
2023-05-10T17:29:32.069Z,8.95
2023-05-10T17:31:59.825Z,7.57
2023-05-10T17:34:26.827Z,8.02
2023-05-10T17:36:53.756Z,8.60
2023-05-10T17:39:20.507Z,7.00
2023-05-10T17:41:47.205Z,6.95
2023-05-10T17:44:14.041Z,6.28
2023-05-10T17:46:40.738Z,8.25
2023-05-10T17:49:07.531Z,7.55
2023-05-10T17:51:34.265Z,6.85
2023-05-10T17:54:00.958Z,9.40
2023-05-10T17:56:27.644Z,12.18
2023-05-10T17:58:54.669Z,7.47
2023-05-10T18:01:21.447Z,12.93
2023-05-10T18:03:49.654Z,8.82
2023-05-10T18:06:16.734Z,8.60
2023-05-10T18:08:43.424Z,7.85
2023-05-10T18:11:10.165Z,11.63
2023-05-10T18:13:36.952Z,7.75
2023-05-10T18:16:05.731Z,7.75
2023-05-10T18:18:32.512Z,8.63
2023-05-10T18:21:00.867Z,7.60
2023-05-10T18:23:27.689Z,6.95
2023-05-10T18:25:54.396Z,11.45
2023-05-10T18:28:21.220Z,9.65
2023-05-10T18:30:48.140Z,10.75
2023-05-10T18:33:14.842Z,7.90
2023-05-10T18:35:41.791Z,8.25
2023-05-10T18:38:09.841Z,8.85
2023-05-10T18:40:37.003Z,7.15
2023-05-10T18:43:05.205Z,8.95
2023-05-10T18:45:32.029Z,8.27
2023-05-10T18:47:58.712Z,8.20
2023-05-10T18:50:25.593Z,14.88
2023-05-10T18:52:52.385Z,10.80
2023-05-10T18:55:19.441Z,9.45
2023-05-10T18:57:46.680Z,7.82
2023-05-10T19:00:13.830Z,8.27
2023-05-10T19:02:41.244Z,8.40
2023-05-10T19:05:08.667Z,7.63
2023-05-10T19:07:35.782Z,8.70
2023-05-10T19:10:03.270Z,8.07
2023-05-10T19:12:30.443Z,9.27
2023-05-10T19:14:57.191Z,11.57
2023-05-10T19:17:24.092Z,9.32
2023-05-10T19:19:51.015Z,9.57
2023-05-10T19:22:28.270Z,11.73
2023-05-10T19:25:03.634Z,8.38
2023-05-10T19:27:30.773Z,11.40
2023-05-10T19:29:57.503Z,7.68
2023-05-10T19:32:24.629Z,9.18
2023-05-10T19:34:51.534Z,8.80
2023-05-10T19:37:18.353Z,9.07
2023-05-10T19:39:45.338Z,9.55
2023-05-10T19:42:12.417Z,6.70
2023-05-10T19:44:40.802Z,10.95
2023-05-10T19:47:09.056Z,9.98
2023-05-10T19:49:38.835Z,6.32
2023-05-10T19:52:07.787Z,6.43
2023-05-10T19:54:34.585Z,9.43
2023-05-10T19:57:01.323Z,8.25
2023-05-10T19:59:28.018Z,12.82
2023-05-10T20:01:54.715Z,10.75
2023-05-10T20:04:22.118Z,8.63
2023-05-10T20:06:49.008Z,6.63
2023-05-10T20:09:16.141Z,6.88
2023-05-10T20:11:42.859Z,7.85
2023-05-10T20:14:09.589Z,12.77
2023-05-10T20:16:36.379Z,11.80
2023-05-10T20:19:03.303Z,9.35
2023-05-10T20:21:30.048Z,10.05
2023-05-10T20:23:56.894Z,11.57
2023-05-10T20:26:23.639Z,7.88
2023-05-10T20:28:51.182Z,8.55
2023-05-10T20:31:17.967Z,9.63
2023-05-10T20:33:45.011Z,9.88
2023-05-10T20:36:12.219Z,10.20
2023-05-10T20:38:39.429Z,7.85
2023-05-10T20:41:06.176Z,8.32
2023-05-10T20:43:32.959Z,5.25
2023-05-10T20:46:05.203Z,8.93
2023-05-10T20:48:33.126Z,8.80
2023-05-10T20:51:02.114Z,8.80
2023-05-10T20:53:29.134Z,12.32
2023-05-10T20:55:55.983Z,9.75
2023-05-10T20:58:22.822Z,7.53
2023-05-10T21:00:49.614Z,12.63
2023-05-10T21:03:16.488Z,5.80
2023-05-10T21:05:43.202Z,8.60
2023-05-10T21:08:10.015Z,9.65
2023-05-10T21:10:36.784Z,6.72
2023-05-10T21:13:03.552Z,5.03
2023-05-10T21:15:30.561Z,8.68
2023-05-10T21:17:57.421Z,8.75
2023-05-10T21:20:24.280Z,6.95
2023-05-10T21:22:51.265Z,4.95
2023-05-10T21:25:18.401Z,10.80
2023-05-10T21:27:45.149Z,8.00
2023-05-10T21:30:12.146Z,6.80
2023-05-10T21:32:39.254Z,10.93
2023-05-10T21:35:07.310Z,6.05
2023-05-10T21:37:34.075Z,5.68
2023-05-10T21:40:01.170Z,10.73
2023-05-10T21:42:28.004Z,7.10
2023-05-10T21:44:57.982Z,7.50
2023-05-10T21:47:24.752Z,5.60
2023-05-10T21:49:51.461Z,9.77
2023-05-10T21:52:18.172Z,4.90
2023-05-10T21:54:44.928Z,8.27
2023-05-10T21:57:14.507Z,10.57
2023-05-10T21:59:41.327Z,9.20
2023-05-10T22:02:10.183Z,7.50
2023-05-10T22:04:36.850Z,8.70
2023-05-10T22:07:04.612Z,8.18
2023-05-10T22:09:34.026Z,12.95
2023-05-10T22:12:01.074Z,11.05
2023-05-10T22:14:30.584Z,8.05
2023-05-10T22:16:58.014Z,7.82
2023-05-10T22:19:25.008Z,11.13
2023-05-10T22:21:52.682Z,7.40
2023-05-10T22:24:19.309Z,6.72
2023-05-10T22:26:46.138Z,9.38
2023-05-10T22:29:12.870Z,10.57
2023-05-10T22:31:39.652Z,9.80
2023-05-10T22:34:06.463Z,9.88
2023-05-10T22:36:34.760Z,7.28
2023-05-10T22:39:01.754Z,7.35
2023-05-10T22:41:28.466Z,9.02
2023-05-10T22:43:55.578Z,9.07
2023-05-10T22:46:22.307Z,9.20
2023-05-10T22:48:49.045Z,8.20
2023-05-10T22:51:15.797Z,6.65
2023-05-10T22:53:42.598Z,7.43
2023-05-10T22:56:09.625Z,6.30
2023-05-10T22:58:36.395Z,4.97
2023-05-10T23:01:03.271Z,6.10
2023-05-10T23:03:32.477Z,8.38
2023-05-10T23:05:59.577Z,7.75
2023-05-10T23:08:26.669Z,6.55
2023-05-10T23:10:53.539Z,3.83
2023-05-10T23:13:21.769Z,4.82
2023-05-10T23:15:48.576Z,3.17
2023-05-10T23:18:15.577Z,2.13
2023-05-10T23:20:45.615Z,2.13
2023-05-10T23:23:12.328Z,2.35
2023-05-10T23:25:39.028Z,3.05
2023-05-10T23:28:05.827Z,3.05
2023-05-10T23:30:32.514Z,3.25
2023-05-10T23:32:59.497Z,3.63
2023-05-10T23:35:26.699Z,3.53
2023-05-10T23:37:53.451Z,2.88
2023-05-10T23:40:20.557Z,1.55
2023-05-10T23:42:47.718Z,5.25
2023-05-10T23:45:14.440Z,2.35
2023-05-10T23:47:41.570Z,6.50
2023-05-10T23:50:09.156Z,8.77
2023-05-10T23:52:36.262Z,11.27
2023-05-10T23:55:03.281Z,9.25
2023-05-10T23:57:30.083Z,8.00
2023-05-10T23:59:57.030Z,8.70
